sensor_id;sensor_type;location;lat;lon;timestamp;temperature;humidity
7341;DHT22;6870;50.944;6.932;2022-11-20T00:01:27;20.10;36.00
7341;DHT22;6870;50.944;6.932;2022-11-20T00:03:57;20.30;36.20
7341;DHT22;6870;50.944;6.932;2022-11-20T00:06:27;20.30;36.20
7341;DHT22;6870;50.944;6.932;2022-11-20T00:08:56;20.30;36.30
7341;DHT22;6870;50.944;6.932;2022-11-20T00:11:29;20.40;36.30
7341;DHT22;6870;50.944;6.932;2022-11-20T00:13:59;20.30;36.10
7341;DHT22;6870;50.944;6.932;2022-11-20T00:16:29;20.50;37.20
7341;DHT22;6870;50.944;6.932;2022-11-20T00:18:59;20.30;36.40
7341;DHT22;6870;50.944;6.932;2022-11-20T00:21:28;20.50;36.50
7341;DHT22;6870;50.944;6.932;2022-11-20T00:23:57;20.20;35.80
7341;DHT22;6870;50.944;6.932;2022-11-20T00:26:27;20.50;36.20
7341;DHT22;6870;50.944;6.932;2022-11-20T00:28:57;20.20;36.20
7341;DHT22;6870;50.944;6.932;2022-11-20T00:31:27;20.30;36.20
7341;DHT22;6870;50.944;6.932;2022-11-20T00:33:55;20.20;36.10
7341;DHT22;6870;50.944;6.932;2022-11-20T00:36:25;20.40;35.80
7341;DHT22;6870;50.944;6.932;2022-11-20T00:38:56;20.10;36.20
7341;DHT22;6870;50.944;6.932;2022-11-20T00:41:26;20.40;35.60
7341;DHT22;6870;50.944;6.932;2022-11-20T00:43:56;20.30;36.00
7341;DHT22;6870;50.944;6.932;2022-11-20T00:46:26;20.30;35.60
7341;DHT22;6870;50.944;6.932;2022-11-20T00:48:55;20.40;36.50
7341;DHT22;6870;50.944;6.932;2022-11-20T00:51:26;20.20;36.30
7341;DHT22;6870;50.944;6.932;2022-11-20T00:53:55;20.20;36.50
7341;DHT22;6870;50.944;6.932;2022-11-20T00:56:23;20.40;36.50
7341;DHT22;6870;50.944;6.932;2022-11-20T00:58:53;20.40;36.60
7341;DHT22;6870;50.944;6.932;2022-11-20T01:01:22;20.10;36.40
7341;DHT22;6870;50.944;6.932;2022-11-20T01:03:53;20.60;36.90
7341;DHT22;6870;50.944;6.932;2022-11-20T01:06:23;20.40;36.30
7341;DHT22;6870;50.944;6.932;2022-11-20T01:08:54;20.50;36.90
7341;DHT22;6870;50.944;6.932;2022-11-20T01:11:25;20.50;36.80
7341;DHT22;6870;50.944;6.932;2022-11-20T01:13:57;20.30;36.70
7341;DHT22;6870;50.944;6.932;2022-11-20T01:16:27;20.70;37.00
7341;DHT22;6870;50.944;6.932;2022-11-20T01:18:57;20.50;36.70
7341;DHT22;6870;50.944;6.932;2022-11-20T01:21:28;20.30;36.30
7341;DHT22;6870;50.944;6.932;2022-11-20T01:23:59;20.20;36.70
7341;DHT22;6870;50.944;6.932;2022-11-20T01:26:30;20.40;36.90
7341;DHT22;6870;50.944;6.932;2022-11-20T01:29:01;20.30;36.60
7341;DHT22;6870;50.944;6.932;2022-11-20T01:31:31;20.30;36.70
7341;DHT22;6870;50.944;6.932;2022-11-20T01:34:02;20.70;37.10
7341;DHT22;6870;50.944;6.932;2022-11-20T01:36:33;20.40;36.60
7341;DHT22;6870;50.944;6.932;2022-11-20T01:39:06;20.30;37.00
7341;DHT22;6870;50.944;6.932;2022-11-20T01:41:35;20.10;36.90
7341;DHT22;6870;50.944;6.932;2022-11-20T01:44:52;20.20;36.90
7341;DHT22;6870;50.944;6.932;2022-11-20T01:47:29;20.60;37.30
7341;DHT22;6870;50.944;6.932;2022-11-20T01:50:04;20.60;37.30
7341;DHT22;6870;50.944;6.932;2022-11-20T01:52:37;20.70;37.10
7341;DHT22;6870;50.944;6.932;2022-11-20T01:55:10;20.30;36.80
7341;DHT22;6870;50.944;6.932;2022-11-20T01:57:41;20.30;36.80
7341;DHT22;6870;50.944;6.932;2022-11-20T02:00:16;20.40;36.80
7341;DHT22;6870;50.944;6.932;2022-11-20T02:02:50;20.40;37.10
7341;DHT22;6870;50.944;6.932;2022-11-20T02:05:23;20.50;36.60
7341;DHT22;6870;50.944;6.932;2022-11-20T02:07:56;20.60;37.10
7341;DHT22;6870;50.944;6.932;2022-11-20T02:10:27;20.40;36.80
7341;DHT22;6870;50.944;6.932;2022-11-20T02:12:56;20.60;36.90
7341;DHT22;6870;50.944;6.932;2022-11-20T02:15:43;20.60;37.00
7341;DHT22;6870;50.944;6.932;2022-11-20T02:18:14;20.60;37.10
7341;DHT22;6870;50.944;6.932;2022-11-20T02:20:44;20.40;36.80
7341;DHT22;6870;50.944;6.932;2022-11-20T02:23:20;20.60;37.00
7341;DHT22;6870;50.944;6.932;2022-11-20T02:25:54;20.70;37.00
7341;DHT22;6870;50.944;6.932;2022-11-20T02:28:23;20.50;37.00
7341;DHT22;6870;50.944;6.932;2022-11-20T02:30:51;20.60;37.20
7341;DHT22;6870;50.944;6.932;2022-11-20T02:33:19;20.50;37.20
7341;DHT22;6870;50.944;6.932;2022-11-20T02:35:47;20.40;38.10
7341;DHT22;6870;50.944;6.932;2022-11-20T02:38:15;20.20;37.30
7341;DHT22;6870;50.944;6.932;2022-11-20T02:40:43;20.60;37.70
7341;DHT22;6870;50.944;6.932;2022-11-20T02:43:15;20.60;37.00
7341;DHT22;6870;50.944;6.932;2022-11-20T02:45:43;20.60;37.50
7341;DHT22;6870;50.944;6.932;2022-11-20T02:48:11;20.40;36.70
7341;DHT22;6870;50.944;6.932;2022-11-20T02:50:39;20.40;37.20
7341;DHT22;6870;50.944;6.932;2022-11-20T02:53:07;20.60;37.70
7341;DHT22;6870;50.944;6.932;2022-11-20T02:55:36;20.30;37.40
7341;DHT22;6870;50.944;6.932;2022-11-20T02:58:04;20.30;36.70
7341;DHT22;6870;50.944;6.932;2022-11-20T03:00:33;20.60;37.50
7341;DHT22;6870;50.944;6.932;2022-11-20T03:03:02;20.50;37.20
7341;DHT22;6870;50.944;6.932;2022-11-20T03:05:30;20.40;37.30
7341;DHT22;6870;50.944;6.932;2022-11-20T03:07:58;20.50;37.20
7341;DHT22;6870;50.944;6.932;2022-11-20T03:10:26;20.60;37.40
7341;DHT22;6870;50.944;6.932;2022-11-20T03:12:54;20.40;37.50
7341;DHT22;6870;50.944;6.932;2022-11-20T03:15:22;20.20;37.10
7341;DHT22;6870;50.944;6.932;2022-11-20T03:17:54;20.30;36.90
7341;DHT22;6870;50.944;6.932;2022-11-20T03:20:23;20.70;37.60
7341;DHT22;6870;50.944;6.932;2022-11-20T03:22:53;20.50;37.30
7341;DHT22;6870;50.944;6.932;2022-11-20T03:25:21;20.40;37.10
7341;DHT22;6870;50.944;6.932;2022-11-20T03:27:50;20.40;37.10
7341;DHT22;6870;50.944;6.932;2022-11-20T03:30:18;20.40;37.50
7341;DHT22;6870;50.944;6.932;2022-11-20T03:32:46;20.30;36.90
7341;DHT22;6870;50.944;6.932;2022-11-20T03:35:16;20.40;37.40
7341;DHT22;6870;50.944;6.932;2022-11-20T03:37:44;20.30;26.20
7341;DHT22;6870;50.944;6.932;2022-11-20T03:40:12;18.90;23.90
7341;DHT22;6870;50.944;6.932;2022-11-20T03:42:41;19.10;29.10
7341;DHT22;6870;50.944;6.932;2022-11-20T03:45:16;19.60;27.80
7341;DHT22;6870;50.944;6.932;2022-11-20T03:47:45;19.80;27.20
7341;DHT22;6870;50.944;6.932;2022-11-20T03:50:15;19.90;26.40
7341;DHT22;6870;50.944;6.932;2022-11-20T03:52:43;20.10;27.20
7341;DHT22;6870;50.944;6.932;2022-11-20T03:55:11;20.30;27.50
7341;DHT22;6870;50.944;6.932;2022-11-20T03:57:39;20.10;27.50
7341;DHT22;6870;50.944;6.932;2022-11-20T04:00:08;20.20;27.40
7341;DHT22;6870;50.944;6.932;2022-11-20T04:02:37;20.20;28.00
7341;DHT22;6870;50.944;6.932;2022-11-20T04:05:05;20.30;28.40
7341;DHT22;6870;50.944;6.932;2022-11-20T04:07:35;20.10;28.60
7341;DHT22;6870;50.944;6.932;2022-11-20T04:10:04;20.30;28.80
7341;DHT22;6870;50.944;6.932;2022-11-20T04:12:33;20.40;29.30
7341;DHT22;6870;50.944;6.932;2022-11-20T04:15:01;20.20;29.40
7341;DHT22;6870;50.944;6.932;2022-11-20T04:17:29;19.80;29.40
7341;DHT22;6870;50.944;6.932;2022-11-20T04:19:57;20.20;29.80
7341;DHT22;6870;50.944;6.932;2022-11-20T04:22:25;20.10;30.00
7341;DHT22;6870;50.944;6.932;2022-11-20T04:24:54;20.30;30.50
7341;DHT22;6870;50.944;6.932;2022-11-20T04:27:22;20.20;31.40
7341;DHT22;6870;50.944;6.932;2022-11-20T04:29:50;20.00;30.60
7341;DHT22;6870;50.944;6.932;2022-11-20T04:32:18;20.30;31.10
7341;DHT22;6870;50.944;6.932;2022-11-20T04:34:46;19.90;31.10
7341;DHT22;6870;50.944;6.932;2022-11-20T04:37:14;20.20;31.70
7341;DHT22;6870;50.944;6.932;2022-11-20T04:39:43;20.10;31.90
7341;DHT22;6870;50.944;6.932;2022-11-20T04:42:13;19.90;31.80
7341;DHT22;6870;50.944;6.932;2022-11-20T04:44:56;20.10;32.00
7341;DHT22;6870;50.944;6.932;2022-11-20T04:47:24;19.70;31.80
7341;DHT22;6870;50.944;6.932;2022-11-20T04:49:52;19.80;32.00
7341;DHT22;6870;50.944;6.932;2022-11-20T04:52:20;19.90;32.20
7341;DHT22;6870;50.944;6.932;2022-11-20T04:54:48;19.60;32.00
7341;DHT22;6870;50.944;6.932;2022-11-20T04:57:20;20.10;32.70
7341;DHT22;6870;50.944;6.932;2022-11-20T04:59:48;20.20;32.90
7341;DHT22;6870;50.944;6.932;2022-11-20T05:02:17;20.10;32.70
7341;DHT22;6870;50.944;6.932;2022-11-20T05:04:45;19.90;32.50
7341;DHT22;6870;50.944;6.932;2022-11-20T05:07:13;19.70;32.80
7341;DHT22;6870;50.944;6.932;2022-11-20T05:09:41;19.80;33.80
7341;DHT22;6870;50.944;6.932;2022-11-20T05:12:09;19.80;33.00
7341;DHT22;6870;50.944;6.932;2022-11-20T05:14:39;20.10;32.20
7341;DHT22;6870;50.944;6.932;2022-11-20T05:17:10;19.90;33.20
7341;DHT22;6870;50.944;6.932;2022-11-20T05:19:39;19.90;33.30
7341;DHT22;6870;50.944;6.932;2022-11-20T05:22:07;20.10;33.50
7341;DHT22;6870;50.944;6.932;2022-11-20T05:24:34;20.00;33.60
7341;DHT22;6870;50.944;6.932;2022-11-20T05:27:03;19.80;32.40
7341;DHT22;6870;50.944;6.932;2022-11-20T05:29:31;19.80;33.50
7341;DHT22;6870;50.944;6.932;2022-11-20T05:32:00;20.00;33.70
7341;DHT22;6870;50.944;6.932;2022-11-20T05:34:28;20.00;33.90
7341;DHT22;6870;50.944;6.932;2022-11-20T05:36:56;20.10;33.30
7341;DHT22;6870;50.944;6.932;2022-11-20T05:39:24;20.00;32.90
7341;DHT22;6870;50.944;6.932;2022-11-20T05:41:52;20.00;33.40
7341;DHT22;6870;50.944;6.932;2022-11-20T05:44:40;20.00;34.20
7341;DHT22;6870;50.944;6.932;2022-11-20T05:47:09;19.70;34.10
7341;DHT22;6870;50.944;6.932;2022-11-20T05:49:37;19.90;34.60
7341;DHT22;6870;50.944;6.932;2022-11-20T05:52:05;19.70;34.50
7341;DHT22;6870;50.944;6.932;2022-11-20T05:54:33;19.60;34.30
7341;DHT22;6870;50.944;6.932;2022-11-20T05:57:01;19.90;34.80
7341;DHT22;6870;50.944;6.932;2022-11-20T05:59:29;19.90;34.00
7341;DHT22;6870;50.944;6.932;2022-11-20T06:01:57;19.70;34.00
7341;DHT22;6870;50.944;6.932;2022-11-20T06:04:26;19.70;33.80
7341;DHT22;6870;50.944;6.932;2022-11-20T06:06:55;19.70;34.60
7341;DHT22;6870;50.944;6.932;2022-11-20T06:09:23;19.80;34.00
7341;DHT22;6870;50.944;6.932;2022-11-20T06:11:51;19.70;35.00
7341;DHT22;6870;50.944;6.932;2022-11-20T06:14:19;19.60;34.10
7341;DHT22;6870;50.944;6.932;2022-11-20T06:16:47;19.70;34.50
7341;DHT22;6870;50.944;6.932;2022-11-20T06:19:15;19.90;34.80
7341;DHT22;6870;50.944;6.932;2022-11-20T06:21:44;19.70;34.60
7341;DHT22;6870;50.944;6.932;2022-11-20T06:24:12;19.80;35.10
7341;DHT22;6870;50.944;6.932;2022-11-20T06:26:40;19.80;35.30
7341;DHT22;6870;50.944;6.932;2022-11-20T06:29:08;19.50;34.70
7341;DHT22;6870;50.944;6.932;2022-11-20T06:31:37;20.00;35.40
7341;DHT22;6870;50.944;6.932;2022-11-20T06:34:05;19.60;35.20
7341;DHT22;6870;50.944;6.932;2022-11-20T06:36:34;19.90;35.50
7341;DHT22;6870;50.944;6.932;2022-11-20T06:39:03;19.70;35.30
7341;DHT22;6870;50.944;6.932;2022-11-20T06:41:31;19.90;34.50
7341;DHT22;6870;50.944;6.932;2022-11-20T06:43:59;19.80;35.50
7341;DHT22;6870;50.944;6.932;2022-11-20T06:46:27;19.80;35.50
7341;DHT22;6870;50.944;6.932;2022-11-20T06:48:55;19.70;34.60
7341;DHT22;6870;50.944;6.932;2022-11-20T06:51:24;19.60;35.20
7341;DHT22;6870;50.944;6.932;2022-11-20T06:53:53;19.90;35.30
7341;DHT22;6870;50.944;6.932;2022-11-20T06:56:22;19.80;35.50
7341;DHT22;6870;50.944;6.932;2022-11-20T06:58:50;19.90;35.70
7341;DHT22;6870;50.944;6.932;2022-11-20T07:01:18;20.10;35.90
7341;DHT22;6870;50.944;6.932;2022-11-20T07:03:48;19.80;35.60
7341;DHT22;6870;50.944;6.932;2022-11-20T07:06:20;20.00;35.80
7341;DHT22;6870;50.944;6.932;2022-11-20T07:08:50;20.00;35.30
7341;DHT22;6870;50.944;6.932;2022-11-20T07:11:19;19.70;35.70
7341;DHT22;6870;50.944;6.932;2022-11-20T07:13:48;20.20;36.20
7341;DHT22;6870;50.944;6.932;2022-11-20T07:16:16;20.10;36.20
7341;DHT22;6870;50.944;6.932;2022-11-20T07:18:44;19.70;35.70
7341;DHT22;6870;50.944;6.932;2022-11-20T07:21:16;19.60;35.30
7341;DHT22;6870;50.944;6.932;2022-11-20T07:23:44;19.90;35.90
7341;DHT22;6870;50.944;6.932;2022-11-20T07:26:12;19.70;36.00
7341;DHT22;6870;50.944;6.932;2022-11-20T07:28:44;19.70;36.20
7341;DHT22;6870;50.944;6.932;2022-11-20T07:31:14;19.60;36.10
7341;DHT22;6870;50.944;6.932;2022-11-20T07:33:45;20.00;36.60
7341;DHT22;6870;50.944;6.932;2022-11-20T07:36:13;19.90;36.60
7341;DHT22;6870;50.944;6.932;2022-11-20T07:38:41;19.80;36.60
7341;DHT22;6870;50.944;6.932;2022-11-20T07:41:09;19.80;36.60
7341;DHT22;6870;50.944;6.932;2022-11-20T07:43:37;19.80;36.70
7341;DHT22;6870;50.944;6.932;2022-11-20T07:46:07;19.60;35.80
7341;DHT22;6870;50.944;6.932;2022-11-20T07:48:36;19.70;36.40
7341;DHT22;6870;50.944;6.932;2022-11-20T07:51:04;19.60;36.50
7341;DHT22;6870;50.944;6.932;2022-11-20T07:53:33;19.80;36.70
7341;DHT22;6870;50.944;6.932;2022-11-20T07:56:01;19.90;36.40
7341;DHT22;6870;50.944;6.932;2022-11-20T07:58:30;19.90;37.10
7341;DHT22;6870;50.944;6.932;2022-11-20T08:01:02;19.50;36.80
7341;DHT22;6870;50.944;6.932;2022-11-20T08:03:31;19.80;37.00
7341;DHT22;6870;50.944;6.932;2022-11-20T08:06:01;19.70;36.80
7341;DHT22;6870;50.944;6.932;2022-11-20T08:08:29;19.80;37.10
7341;DHT22;6870;50.944;6.932;2022-11-20T08:11:00;19.70;37.00
7341;DHT22;6870;50.944;6.932;2022-11-20T08:13:42;19.90;36.70
7341;DHT22;6870;50.944;6.932;2022-11-20T08:16:27;19.80;36.90
7341;DHT22;6870;50.944;6.932;2022-11-20T08:18:55;19.80;37.20
7341;DHT22;6870;50.944;6.932;2022-11-20T08:21:25;19.90;37.20
7341;DHT22;6870;50.944;6.932;2022-11-20T08:23:53;19.80;37.10
7341;DHT22;6870;50.944;6.932;2022-11-20T08:26:21;19.90;37.50
7341;DHT22;6870;50.944;6.932;2022-11-20T08:28:53;19.60;37.10
7341;DHT22;6870;50.944;6.932;2022-11-20T08:31:22;19.60;37.20
7341;DHT22;6870;50.944;6.932;2022-11-20T08:33:50;19.70;37.20
7341;DHT22;6870;50.944;6.932;2022-11-20T08:36:19;20.00;37.70
7341;DHT22;6870;50.944;6.932;2022-11-20T08:38:50;20.00;37.80
7341;DHT22;6870;50.944;6.932;2022-11-20T08:41:19;20.00;37.90
7341;DHT22;6870;50.944;6.932;2022-11-20T08:43:56;19.60;37.50
7341;DHT22;6870;50.944;6.932;2022-11-20T08:46:27;19.70;37.60
7341;DHT22;6870;50.944;6.932;2022-11-20T08:48:56;20.10;38.00
7341;DHT22;6870;50.944;6.932;2022-11-20T08:51:24;19.60;37.70
7341;DHT22;6870;50.944;6.932;2022-11-20T08:53:53;19.80;37.80
7341;DHT22;6870;50.944;6.932;2022-11-20T08:56:21;19.70;37.70
7341;DHT22;6870;50.944;6.932;2022-11-20T08:58:50;19.80;37.70
7341;DHT22;6870;50.944;6.932;2022-11-20T09:01:39;19.70;37.60
7341;DHT22;6870;50.944;6.932;2022-11-20T09:04:07;20.10;38.30
7341;DHT22;6870;50.944;6.932;2022-11-20T09:06:35;19.60;37.70
7341;DHT22;6870;50.944;6.932;2022-11-20T09:09:04;19.90;37.90
7341;DHT22;6870;50.944;6.932;2022-11-20T09:11:34;19.90;37.70
7341;DHT22;6870;50.944;6.932;2022-11-20T09:14:02;19.80;37.60
7341;DHT22;6870;50.944;6.932;2022-11-20T09:16:31;20.00;37.50
7341;DHT22;6870;50.944;6.932;2022-11-20T09:18:59;20.00;37.90
7341;DHT22;6870;50.944;6.932;2022-11-20T09:21:47;20.00;37.90
7341;DHT22;6870;50.944;6.932;2022-11-20T09:24:16;20.00;37.90
7341;DHT22;6870;50.944;6.932;2022-11-20T09:26:44;20.10;38.00
7341;DHT22;6870;50.944;6.932;2022-11-20T09:29:13;20.30;38.20
7341;DHT22;6870;50.944;6.932;2022-11-20T09:31:41;20.00;37.80
7341;DHT22;6870;50.944;6.932;2022-11-20T09:34:09;20.10;37.90
7341;DHT22;6870;50.944;6.932;2022-11-20T09:36:37;20.10;37.70
7341;DHT22;6870;50.944;6.932;2022-11-20T09:39:05;20.40;37.70
7341;DHT22;6870;50.944;6.932;2022-11-20T09:42:01;20.10;37.40
7341;DHT22;6870;50.944;6.932;2022-11-20T09:44:46;20.20;37.30
7341;DHT22;6870;50.944;6.932;2022-11-20T09:47:26;20.30;37.50
7341;DHT22;6870;50.944;6.932;2022-11-20T09:50:12;20.30;37.50
7341;DHT22;6870;50.944;6.932;2022-11-20T09:52:54;20.30;37.60
7341;DHT22;6870;50.944;6.932;2022-11-20T09:55:31;19.90;37.30
7341;DHT22;6870;50.944;6.932;2022-11-20T09:58:00;20.10;37.60
7341;DHT22;6870;50.944;6.932;2022-11-20T10:00:29;20.10;37.80
7341;DHT22;6870;50.944;6.932;2022-11-20T10:03:01;20.40;37.70
7341;DHT22;6870;50.944;6.932;2022-11-20T10:05:33;20.20;38.80
7341;DHT22;6870;50.944;6.932;2022-11-20T10:08:13;20.20;39.30
7341;DHT22;6870;50.944;6.932;2022-11-20T10:10:46;20.40;39.50
7341;DHT22;6870;50.944;6.932;2022-11-20T10:13:34;20.00;39.10
7341;DHT22;6870;50.944;6.932;2022-11-20T10:16:18;20.30;39.50
7341;DHT22;6870;50.944;6.932;2022-11-20T10:19:02;20.00;39.30
7341;DHT22;6870;50.944;6.932;2022-11-20T10:21:42;20.00;31.70
7341;DHT22;6870;50.944;6.932;2022-11-20T10:24:47;17.80;22.50
7341;DHT22;6870;50.944;6.932;2022-11-20T10:27:41;16.40;28.30
7341;DHT22;6870;50.944;6.932;2022-11-20T10:30:28;18.10;37.50
7341;DHT22;6870;50.944;6.932;2022-11-20T10:33:05;17.60;21.50
7341;DHT22;6870;50.944;6.932;2022-11-20T10:35:42;16.80;22.40
7341;DHT22;6870;50.944;6.932;2022-11-20T10:38:16;16.00;21.70
7341;DHT22;6870;50.944;6.932;2022-11-20T10:40:49;16.20;30.70
7341;DHT22;6870;50.944;6.932;2022-11-20T10:43:24;17.50;36.60
7341;DHT22;6870;50.944;6.932;2022-11-20T10:46:00;18.50;34.00
7341;DHT22;6870;50.944;6.932;2022-11-20T10:48:32;19.20;33.20
7341;DHT22;6870;50.944;6.932;2022-11-20T10:51:11;19.20;33.50
7341;DHT22;6870;50.944;6.932;2022-11-20T10:53:56;19.20;33.20
7341;DHT22;6870;50.944;6.932;2022-11-20T10:56:31;19.50;33.80
7341;DHT22;6870;50.944;6.932;2022-11-20T10:59:15;19.10;33.20
7341;DHT22;6870;50.944;6.932;2022-11-20T11:01:56;19.50;35.00
7341;DHT22;6870;50.944;6.932;2022-11-20T11:04:37;19.60;35.10
7341;DHT22;6870;50.944;6.932;2022-11-20T11:07:10;19.70;35.60
7341;DHT22;6870;50.944;6.932;2022-11-20T11:09:44;19.70;34.50
7341;DHT22;6870;50.944;6.932;2022-11-20T11:12:15;19.50;34.30
7341;DHT22;6870;50.944;6.932;2022-11-20T11:14:45;19.20;36.00
7341;DHT22;6870;50.944;6.932;2022-11-20T11:17:26;19.40;36.40
7341;DHT22;6870;50.944;6.932;2022-11-20T11:19:59;19.60;36.40
7341;DHT22;6870;50.944;6.932;2022-11-20T11:22:34;19.70;36.90
7341;DHT22;6870;50.944;6.932;2022-11-20T11:25:03;19.60;36.20
7341;DHT22;6870;50.944;6.932;2022-11-20T11:27:45;19.50;37.00
7341;DHT22;6870;50.944;6.932;2022-11-20T11:30:16;19.60;36.70
7341;DHT22;6870;50.944;6.932;2022-11-20T11:32:47;19.70;37.10
7341;DHT22;6870;50.944;6.932;2022-11-20T11:35:25;19.80;36.50
7341;DHT22;6870;50.944;6.932;2022-11-20T11:38:03;19.80;36.50
7341;DHT22;6870;50.944;6.932;2022-11-20T11:40:34;19.70;36.80
7341;DHT22;6870;50.944;6.932;2022-11-20T11:43:06;19.70;36.80
7341;DHT22;6870;50.944;6.932;2022-11-20T11:46:23;19.70;36.50
7341;DHT22;6870;50.944;6.932;2022-11-20T11:49:16;19.50;36.30
7341;DHT22;6870;50.944;6.932;2022-11-20T11:51:59;19.60;36.40
7341;DHT22;6870;50.944;6.932;2022-11-20T11:54:34;19.40;36.50
7341;DHT22;6870;50.944;6.932;2022-11-20T11:57:12;19.70;38.80
7341;DHT22;6870;50.944;6.932;2022-11-20T11:59:52;19.80;37.30
7341;DHT22;6870;50.944;6.932;2022-11-20T12:02:35;19.70;37.10
7341;DHT22;6870;50.944;6.932;2022-11-20T12:05:14;19.60;36.70
7341;DHT22;6870;50.944;6.932;2022-11-20T12:07:47;19.60;37.10
7341;DHT22;6870;50.944;6.932;2022-11-20T12:10:20;19.70;37.20
7341;DHT22;6870;50.944;6.932;2022-11-20T12:12:53;19.60;37.20
7341;DHT22;6870;50.944;6.932;2022-11-20T12:15:30;19.70;36.90
7341;DHT22;6870;50.944;6.932;2022-11-20T12:17:59;19.50;37.10
7341;DHT22;6870;50.944;6.932;2022-11-20T12:20:33;19.70;37.30
7341;DHT22;6870;50.944;6.932;2022-11-20T12:23:11;19.70;37.20
7341;DHT22;6870;50.944;6.932;2022-11-20T12:25:46;19.70;37.20
7341;DHT22;6870;50.944;6.932;2022-11-20T12:28:28;19.60;37.00
7341;DHT22;6870;50.944;6.932;2022-11-20T12:31:18;19.50;36.90
7341;DHT22;6870;50.944;6.932;2022-11-20T12:34:12;19.50;37.00
7341;DHT22;6870;50.944;6.932;2022-11-20T12:36:54;19.70;37.30
7341;DHT22;6870;50.944;6.932;2022-11-20T12:39:34;19.50;37.00
7341;DHT22;6870;50.944;6.932;2022-11-20T12:42:23;19.70;37.10
7341;DHT22;6870;50.944;6.932;2022-11-20T12:45:21;19.60;37.00
7341;DHT22;6870;50.944;6.932;2022-11-20T12:51:43;19.70;36.60
7341;DHT22;6870;50.944;6.932;2022-11-20T12:54:42;19.80;37.10
7341;DHT22;6870;50.944;6.932;2022-11-20T12:57:21;19.70;36.60
7341;DHT22;6870;50.944;6.932;2022-11-20T13:00:02;19.70;36.90
7341;DHT22;6870;50.944;6.932;2022-11-20T13:05:50;19.60;37.00
7341;DHT22;6870;50.944;6.932;2022-11-20T13:08:25;19.80;37.20
7341;DHT22;6870;50.944;6.932;2022-11-20T13:10:59;19.60;37.00
7341;DHT22;6870;50.944;6.932;2022-11-20T13:13:39;19.70;37.00
7341;DHT22;6870;50.944;6.932;2022-11-20T13:16:18;19.70;37.10
7341;DHT22;6870;50.944;6.932;2022-11-20T13:18:50;19.60;37.00
7341;DHT22;6870;50.944;6.932;2022-11-20T13:21:20;19.60;37.00
7341;DHT22;6870;50.944;6.932;2022-11-20T13:23:50;19.50;36.90
7341;DHT22;6870;50.944;6.932;2022-11-20T13:26:21;19.50;36.40
7341;DHT22;6870;50.944;6.932;2022-11-20T13:29:01;19.70;37.80
7341;DHT22;6870;50.944;6.932;2022-11-20T13:31:34;19.60;37.50
7341;DHT22;6870;50.944;6.932;2022-11-20T13:34:04;19.60;37.50
7341;DHT22;6870;50.944;6.932;2022-11-20T13:36:33;19.60;37.50
7341;DHT22;6870;50.944;6.932;2022-11-20T13:39:04;19.70;37.90
7341;DHT22;6870;50.944;6.932;2022-11-20T13:41:34;19.70;38.10
7341;DHT22;6870;50.944;6.932;2022-11-20T13:44:09;19.60;38.20
7341;DHT22;6870;50.944;6.932;2022-11-20T13:46:42;19.80;38.50
7341;DHT22;6870;50.944;6.932;2022-11-20T13:49:18;19.70;38.50
7341;DHT22;6870;50.944;6.932;2022-11-20T13:51:50;19.60;38.40
7341;DHT22;6870;50.944;6.932;2022-11-20T13:54:36;19.80;38.50
7341;DHT22;6870;50.944;6.932;2022-11-20T14:00:23;19.70;38.50
7341;DHT22;6870;50.944;6.932;2022-11-20T14:03:01;19.70;38.70
7341;DHT22;6870;50.944;6.932;2022-11-20T14:05:36;19.70;38.10
7341;DHT22;6870;50.944;6.932;2022-11-20T14:08:09;19.40;38.60
7341;DHT22;6870;50.944;6.932;2022-11-20T14:10:46;19.60;38.80
7341;DHT22;6870;50.944;6.932;2022-11-20T14:13:18;19.60;38.80
7341;DHT22;6870;50.944;6.932;2022-11-20T14:15:46;19.60;38.80
7341;DHT22;6870;50.944;6.932;2022-11-20T14:18:19;19.60;38.70
7341;DHT22;6870;50.944;6.932;2022-11-20T14:20:48;19.70;38.80
7341;DHT22;6870;50.944;6.932;2022-11-20T14:23:24;19.50;38.40
7341;DHT22;6870;50.944;6.932;2022-11-20T14:25:57;19.50;38.70
7341;DHT22;6870;50.944;6.932;2022-11-20T14:28:26;19.70;38.50
7341;DHT22;6870;50.944;6.932;2022-11-20T14:30:56;19.40;38.00
7341;DHT22;6870;50.944;6.932;2022-11-20T14:33:26;19.70;38.10
7341;DHT22;6870;50.944;6.932;2022-11-20T14:35:56;19.60;38.40
7341;DHT22;6870;50.944;6.932;2022-11-20T14:38:27;19.60;38.40
7341;DHT22;6870;50.944;6.932;2022-11-20T14:41:07;19.50;38.40
7341;DHT22;6870;50.944;6.932;2022-11-20T14:43:36;19.50;38.30
7341;DHT22;6870;50.944;6.932;2022-11-20T14:46:07;19.60;38.40
7341;DHT22;6870;50.944;6.932;2022-11-20T14:48:39;19.30;38.10
7341;DHT22;6870;50.944;6.932;2022-11-20T14:51:09;19.60;38.30
7341;DHT22;6870;50.944;6.932;2022-11-20T14:53:38;19.50;38.20
7341;DHT22;6870;50.944;6.932;2022-11-20T14:56:08;19.50;38.20
7341;DHT22;6870;50.944;6.932;2022-11-20T14:58:36;19.60;38.30
7341;DHT22;6870;50.944;6.932;2022-11-20T15:01:06;19.60;37.60
7341;DHT22;6870;50.944;6.932;2022-11-20T15:03:36;19.70;38.40
7341;DHT22;6870;50.944;6.932;2022-11-20T15:06:06;19.60;38.10
7341;DHT22;6870;50.944;6.932;2022-11-20T15:08:35;19.70;38.40
7341;DHT22;6870;50.944;6.932;2022-11-20T15:11:03;19.30;38.10
7341;DHT22;6870;50.944;6.932;2022-11-20T15:13:45;19.50;38.10
7341;DHT22;6870;50.944;6.932;2022-11-20T15:16:18;19.40;38.00
7341;DHT22;6870;50.944;6.932;2022-11-20T15:18:47;19.50;38.10
7341;DHT22;6870;50.944;6.932;2022-11-20T15:21:17;19.60;37.70
7341;DHT22;6870;50.944;6.932;2022-11-20T15:23:47;19.50;38.30
7341;DHT22;6870;50.944;6.932;2022-11-20T15:26:20;19.60;39.00
7341;DHT22;6870;50.944;6.932;2022-11-20T15:28:50;19.70;38.40
7341;DHT22;6870;50.944;6.932;2022-11-20T15:31:19;19.40;38.20
7341;DHT22;6870;50.944;6.932;2022-11-20T15:33:49;19.60;38.40
7341;DHT22;6870;50.944;6.932;2022-11-20T15:36:17;19.70;38.50
7341;DHT22;6870;50.944;6.932;2022-11-20T15:38:45;19.50;38.30
7341;DHT22;6870;50.944;6.932;2022-11-20T15:41:13;19.60;38.40
7341;DHT22;6870;50.944;6.932;2022-11-20T15:43:43;19.30;38.30
7341;DHT22;6870;50.944;6.932;2022-11-20T15:46:13;19.50;38.00
7341;DHT22;6870;50.944;6.932;2022-11-20T15:48:44;19.50;38.60
7341;DHT22;6870;50.944;6.932;2022-11-20T15:51:21;19.70;38.60
7341;DHT22;6870;50.944;6.932;2022-11-20T15:53:52;19.70;38.50
7341;DHT22;6870;50.944;6.932;2022-11-20T15:56:22;19.60;38.40
7341;DHT22;6870;50.944;6.932;2022-11-20T15:58:51;19.30;38.40
7341;DHT22;6870;50.944;6.932;2022-11-20T16:01:21;19.70;38.70
7341;DHT22;6870;50.944;6.932;2022-11-20T16:03:49;19.40;38.50
7341;DHT22;6870;50.944;6.932;2022-11-20T16:06:17;19.80;38.00
7341;DHT22;6870;50.944;6.932;2022-11-20T16:08:46;19.70;38.60
7341;DHT22;6870;50.944;6.932;2022-11-20T16:11:15;19.60;38.50
7341;DHT22;6870;50.944;6.932;2022-11-20T16:13:44;19.50;38.40
7341;DHT22;6870;50.944;6.932;2022-11-20T16:16:34;19.50;38.40
7341;DHT22;6870;50.944;6.932;2022-11-20T16:19:03;19.70;38.50
7341;DHT22;6870;50.944;6.932;2022-11-20T16:21:31;19.50;39.10
7341;DHT22;6870;50.944;6.932;2022-11-20T16:24:03;19.60;38.50
7341;DHT22;6870;50.944;6.932;2022-11-20T16:26:33;19.70;39.30
7341;DHT22;6870;50.944;6.932;2022-11-20T16:29:03;19.80;38.50
7341;DHT22;6870;50.944;6.932;2022-11-20T16:31:33;19.70;38.50
7341;DHT22;6870;50.944;6.932;2022-11-20T16:34:04;19.50;38.40
7341;DHT22;6870;50.944;6.932;2022-11-20T16:36:39;19.30;38.10
7341;DHT22;6870;50.944;6.932;2022-11-20T16:39:08;19.30;38.10
7341;DHT22;6870;50.944;6.932;2022-11-20T16:41:37;19.30;38.10
7341;DHT22;6870;50.944;6.932;2022-11-20T16:44:07;19.50;38.30